Time;durP1;ratioP1;P1;durP2;ratioP2;P2;SDS_P1;SDS_P2;PMS_P1;PMS_P2;Temp;Humidity;BMP_temperature;BMP_pressure;BME280_temperature;BME280_humidity;BME280_pressure;Samples;Min_cycle;Max_cycle;Signal;HPM_P1;HPM_P2
2022/04/02 00:01:48;;;;;;;18.60;13.30;;;2.20;74.40;;;;;;5060250;28;46493;-64
2022/04/02 00:04:14;;;;;;;20.83;15.27;;;2.10;74.10;;;;;;5054598;28;46169;-64
2022/04/02 00:06:39;;;;;;;22.37;15.13;;;2.00;74.20;;;;;;5053255;28;46965;-62
2022/04/02 00:09:05;;;;;;;18.93;13.73;;;2.10;74.00;;;;;;5059281;28;46335;-64
2022/04/02 00:11:31;;;;;;;19.13;13.90;;;2.10;74.00;;;;;;5051269;28;46459;-64
2022/04/02 00:13:58;;;;;;;20.40;13.70;;;2.00;74.50;;;;;;5045730;28;46784;-64
2022/04/02 00:16:24;;;;;;;19.95;13.35;;;1.90;74.70;;;;;;5060027;28;47839;-65
2022/04/02 00:18:50;;;;;;;19.58;13.95;;;1.80;75.10;;;;;;5059816;28;46361;-63
2022/04/02 00:21:16;;;;;;;17.83;13.17;;;1.90;75.00;;;;;;5062338;28;46358;-65
2022/04/02 00:23:46;;;;;;;19.30;12.52;;;2.00;74.80;;;;;;5064120;28;46382;-64
2022/04/02 00:26:14;;;;;;;17.25;12.52;;;1.90;74.70;;;;;;5062174;28;47239;-63
2022/04/02 00:28:41;;;;;;;19.83;14.27;;;1.90;74.80;;;;;;5060760;28;46274;-64
2022/04/02 00:31:08;;;;;;;20.35;14.57;;;1.90;74.70;;;;;;5064065;28;46470;-64
2022/04/02 00:33:34;;;;;;;19.67;13.35;;;2.00;74.50;;;;;;5063863;28;46603;-65
2022/04/02 00:36:01;;;;;;;21.67;14.02;;;2.00;74.70;;;;;;5062596;28;48412;-66
2022/04/02 00:38:27;;;;;;;19.77;13.70;;;2.00;74.70;;;;;;5062155;28;46348;-66
2022/04/02 00:40:53;;;;;;;20.65;13.48;;;2.00;74.70;;;;;;5063624;28;46350;-67
2022/04/02 00:43:28;;;;;;;21.13;14.55;;;2.00;74.60;;;;;;5062306;28;46568;-65
2022/04/02 00:45:55;;;;;;;20.10;14.70;;;2.00;74.60;;;;;;5059056;28;46980;-63
2022/04/02 00:48:22;;;;;;;20.45;15.07;;;2.00;74.40;;;;;;5060153;28;46586;-63
2022/04/02 00:50:52;;;;;;;19.73;13.05;;;2.10;74.30;;;;;;5063941;28;46408;-64
2022/04/02 00:53:20;;;;;;;20.17;14.93;;;2.00;74.60;;;;;;5057778;28;46397;-64
2022/04/02 00:55:46;;;;;;;21.63;15.60;;;1.90;74.80;;;;;;5062964;28;48151;-67
2022/04/02 00:58:11;;;;;;;21.70;15.33;;;1.90;74.80;;;;;;5061663;28;46348;-63
2022/04/02 01:00:40;;;;;;;21.40;14.27;;;2.00;74.80;;;;;;5063380;28;46267;-65
2022/04/02 01:03:07;;;;;;;23.38;15.85;;;2.00;74.90;;;;;;5057772;28;46440;-68
2022/04/02 01:05:35;;;;;;;22.67;15.25;;;2.00;75.00;;;;;;5060939;28;46438;-68
2022/04/02 01:08:01;;;;;;;23.48;16.20;;;2.00;75.00;;;;;;5055880;28;46472;-66
2022/04/02 01:10:28;;;;;;;21.67;14.50;;;1.90;75.30;;;;;;5056280;28;46356;-64
2022/04/02 01:12:54;;;;;;;21.60;14.85;;;2.00;75.50;;;;;;5062963;28;46357;-64
2022/04/02 01:15:19;;;;;;;24.33;17.30;;;1.90;75.70;;;;;;5059483;28;46464;-64
2022/04/02 01:17:46;;;;;;;22.63;14.97;;;1.90;75.60;;;;;;5060742;28;46544;-64
2022/04/02 01:20:14;;;;;;;27.05;17.02;;;2.00;75.40;;;;;;5062284;28;46504;-66
2022/04/02 01:22:40;;;;;;;25.13;16.00;;;2.00;75.20;;;;;;5063307;28;46316;-64
2022/04/02 01:25:05;;;;;;;21.73;15.30;;;2.00;75.20;;;;;;5062125;28;47031;-67
2022/04/02 01:27:31;;;;;;;27.20;17.67;;;2.00;75.60;;;;;;5062666;28;46540;-65
2022/04/02 01:29:57;;;;;;;26.30;16.60;;;2.00;75.40;;;;;;5058763;28;46345;-64
2022/04/02 01:32:23;;;;;;;24.80;16.07;;;2.00;75.50;;;;;;5051330;28;46424;-66
2022/04/02 01:34:48;;;;;;;20.97;14.30;;;2.00;75.50;;;;;;5055295;28;46533;-65
2022/04/02 01:37:15;;;;;;;23.60;14.97;;;1.90;75.90;;;;;;5059646;28;46728;-64
2022/04/02 01:39:42;;;;;;;23.88;14.90;;;1.90;76.00;;;;;;5062847;28;45853;-64
2022/04/02 01:42:08;;;;;;;22.30;13.70;;;1.80;76.10;;;;;;5054068;28;46573;-66
2022/04/02 01:44:34;;;;;;;20.15;13.98;;;1.70;76.70;;;;;;5062464;28;46419;-64
2022/04/02 01:47:00;;;;;;;25.80;15.00;;;1.60;77.00;;;;;;5059356;28;46401;-65
2022/04/02 01:49:26;;;;;;;21.35;13.82;;;1.60;78.00;;;;;;5058197;28;46445;-64
2022/04/02 01:51:52;;;;;;;23.45;15.10;;;1.60;77.60;;;;;;5059614;28;46397;-64
2022/04/02 01:54:19;;;;;;;23.23;15.27;;;1.60;77.40;;;;;;5058792;28;47298;-65
2022/04/02 01:56:45;;;;;;;21.63;12.95;;;1.50;77.50;;;;;;5057662;28;46607;-63
2022/04/02 01:59:11;;;;;;;20.47;14.53;;;1.50;77.80;;;;;;5062401;28;46495;-63
2022/04/02 02:01:37;;;;;;;19.17;13.23;;;1.40;78.30;;;;;;5061093;28;46656;-63
2022/04/02 02:04:02;;;;;;;22.57;14.83;;;1.30;78.50;;;;;;5059118;28;46369;-66
2022/04/02 02:06:28;;;;;;;25.17;14.57;;;1.30;78.80;;;;;;5061890;28;46349;-65
2022/04/02 02:08:54;;;;;;;19.33;13.00;;;1.30;79.10;;;;;;5060801;28;45962;-66
2022/04/02 02:11:20;;;;;;;21.50;13.63;;;1.20;79.00;;;;;;5059266;28;45982;-66
2022/04/02 02:13:46;;;;;;;25.98;15.20;;;1.20;79.20;;;;;;5058987;28;46664;-65
2022/04/02 02:16:12;;;;;;;21.57;13.93;;;1.40;79.30;;;;;;5061390;28;46349;-64
2022/04/02 02:18:37;;;;;;;24.33;14.43;;;1.20;79.20;;;;;;5059692;28;46104;-66
2022/04/02 02:21:03;;;;;;;24.20;15.80;;;1.20;79.20;;;;;;5058744;28;46325;-65
2022/04/02 02:23:29;;;;;;;23.57;13.53;;;1.30;79.00;;;;;;5051207;28;47238;-64
2022/04/02 02:25:54;;;;;;;22.57;14.33;;;1.20;79.30;;;;;;5056957;28;46469;-65
2022/04/02 02:28:20;;;;;;;26.03;15.70;;;1.10;79.60;;;;;;5061135;28;46704;-65
2022/04/02 02:30:45;;;;;;;23.33;14.57;;;1.10;79.60;;;;;;5061907;28;46505;-64
2022/04/02 02:35:55;;;;;;;24.00;15.48;;;1.20;79.40;;;;;;5046419;28;46617;-63
2022/04/02 02:38:21;;;;;;;20.17;13.70;;;1.20;79.30;;;;;;5059066;28;46493;-63
2022/04/02 02:40:49;;;;;;;26.80;17.02;;;1.20;79.30;;;;;;5054057;28;46390;-62
2022/04/02 02:43:15;;;;;;;26.33;17.08;;;1.20;79.20;;;;;;5060724;28;46304;-64
2022/04/02 02:45:41;;;;;;;26.35;16.75;;;1.10;79.20;;;;;;5061381;28;46279;-65
2022/04/02 02:48:06;;;;;;;26.63;17.23;;;1.10;79.80;;;;;;5061398;28;46271;-64
2022/04/02 02:50:33;;;;;;;28.37;17.30;;;0.90;79.90;;;;;;5057617;28;46486;-63
2022/04/02 02:52:59;;;;;;;24.33;16.55;;;1.00;79.80;;;;;;5059644;28;46668;-63
2022/04/02 02:55:25;;;;;;;26.52;16.40;;;1.00;79.80;;;;;;5058267;28;46386;-64
2022/04/02 02:57:50;;;;;;;23.25;16.65;;;1.00;79.60;;;;;;5058795;28;46441;-65
2022/04/02 03:00:19;;;;;;;29.27;18.63;;;1.00;79.40;;;;;;5059238;28;46419;-64
2022/04/02 03:02:45;;;;;;;28.95;18.70;;;1.00;79.40;;;;;;5057797;28;47363;-63
2022/04/02 03:05:12;;;;;;;26.70;17.37;;;1.00;79.40;;;;;;5060555;28;46306;-64
2022/04/02 03:07:41;;;;;;;26.65;17.90;;;1.00;79.50;;;;;;5056765;28;45838;-64
2022/04/02 03:10:07;;;;;;;26.90;16.20;;;1.10;79.70;;;;;;5060849;28;46474;-64
2022/04/02 03:12:33;;;;;;;25.40;16.85;;;0.90;79.70;;;;;;5058545;28;46426;-65
2022/04/02 03:15:01;;;;;;;25.70;17.17;;;0.90;79.80;;;;;;5055297;28;46343;-67
2022/04/02 03:17:29;;;;;;;28.15;18.73;;;1.00;79.80;;;;;;5056674;28;46912;-64
2022/04/02 03:19:55;;;;;;;28.67;19.08;;;1.00;79.80;;;;;;5055752;28;46757;-64
2022/04/02 03:22:21;;;;;;;27.30;19.03;;;1.00;79.40;;;;;;5056177;28;46981;-63
2022/04/02 03:24:47;;;;;;;31.48;19.25;;;1.00;80.70;;;;;;5056734;28;46441;-66
2022/04/02 03:27:13;;;;;;;29.70;17.27;;;1.00;79.50;;;;;;5060284;28;46490;-65
2022/04/02 03:29:39;;;;;;;26.17;18.00;;;0.90;79.40;;;;;;5057404;28;46512;-65
2022/04/02 03:32:05;;;;;;;25.13;15.18;;;1.00;79.50;;;;;;5053939;28;47224;-64
2022/04/02 03:34:31;;;;;;;27.98;17.50;;;1.00;79.50;;;;;;5058858;28;46311;-67
2022/04/02 03:36:56;;;;;;;28.83;18.60;;;1.00;79.50;;;;;;5059067;28;46415;-65
2022/04/02 03:39:22;;;;;;;28.10;16.60;;;0.90;79.50;;;;;;5060800;28;46375;-64
2022/04/02 03:41:48;;;;;;;30.07;18.13;;;0.90;79.60;;;;;;5058947;28;46444;-63
2022/04/02 03:44:13;;;;;;;31.65;19.42;;;0.90;79.50;;;;;;5052501;28;45893;-63
2022/04/02 03:49:26;;;;;;;28.15;18.17;;;0.80;79.40;;;;;;5055448;28;46203;-64
2022/04/02 03:51:52;;;;;;;27.73;18.25;;;0.90;79.50;;;;;;5060264;28;46442;-66
2022/04/02 03:54:18;;;;;;;31.55;19.70;;;0.90;79.30;;;;;;5056714;28;46433;-64
2022/04/02 03:56:43;;;;;;;31.80;20.30;;;0.90;79.30;;;;;;5053044;28;46438;-62
2022/04/02 03:59:11;;;;;;;28.80;18.30;;;0.90;79.50;;;;;;5060807;28;46428;-62
2022/04/02 04:01:37;;;;;;;31.98;20.08;;;0.80;79.50;;;;;;5059974;28;47137;-63
2022/04/02 04:04:04;;;;;;;30.98;17.08;;;0.80;79.60;;;;;;5057779;28;46406;-64
2022/04/02 04:06:31;;;;;;;29.42;19.50;;;0.80;79.60;;;;;;5054115;28;46374;-62
2022/04/02 04:08:58;;;;;;;31.50;17.40;;;0.90;79.50;;;;;;5058501;28;46350;-62
2022/04/02 04:11:27;;;;;;;27.52;18.00;;;0.90;79.60;;;;;;5060982;28;47058;-63
2022/04/02 04:13:59;;;;;;;29.85;17.20;;;0.90;79.50;;;;;;5060290;28;45923;-62
2022/04/02 04:16:24;;;;;;;32.15;18.23;;;0.90;79.70;;;;;;5058028;28;46409;-63
2022/04/02 04:18:50;;;;;;;26.00;17.50;;;0.90;79.80;;;;;;5060627;28;46649;-63
2022/04/02 04:21:17;;;;;;;26.13;16.57;;;0.80;79.60;;;;;;5057470;28;47120;-62
2022/04/02 04:23:43;;;;;;;34.17;17.60;;;0.80;79.70;;;;;;5056424;28;46310;-61
2022/04/02 04:26:10;;;;;;;28.02;18.38;;;0.80;79.80;;;;;;5059347;28;46504;-62
2022/04/02 04:28:37;;;;;;;28.55;18.10;;;0.80;79.70;;;;;;5056531;28;46201;-62
2022/04/02 04:31:03;;;;;;;30.75;19.38;;;0.70;79.90;;;;;;5057929;28;46415;-63
2022/04/02 04:33:28;;;;;;;23.63;16.70;;;0.80;79.90;;;;;;5053517;28;46391;-62
2022/04/02 04:35:54;;;;;;;25.90;14.60;;;0.80;80.00;;;;;;5052691;28;45900;-62
2022/04/02 04:38:20;;;;;;;21.40;13.57;;;0.70;80.00;;;;;;5060043;28;46340;-63
2022/04/02 04:40:45;;;;;;;26.40;16.53;;;0.60;80.50;;;;;;5058383;28;46464;-63
2022/04/02 04:43:11;;;;;;;23.37;16.70;;;0.60;80.50;;;;;;5058697;28;46242;-62
2022/04/02 04:45:36;;;;;;;26.37;16.70;;;0.80;80.40;;;;;;5059458;28;46348;-62
2022/04/02 04:48:02;;;;;;;28.63;17.77;;;0.70;80.30;;;;;;5058591;28;46421;-63
2022/04/02 04:50:28;;;;;;;21.58;13.65;;;0.70;80.10;;;;;;5058486;28;48818;-62
2022/04/02 04:52:53;;;;;;;22.97;16.07;;;0.70;80.00;;;;;;5060018;28;46354;-62
2022/04/02 04:55:19;;;;;;;25.23;16.07;;;0.60;80.00;;;;;;5057341;28;46329;-62
2022/04/02 04:57:47;;;;;;;27.33;15.13;;;0.60;80.40;;;;;;5050211;28;46628;-63
2022/04/02 05:00:15;;;;;;;23.45;14.27;;;0.60;80.40;;;;;;5058684;28;46490;-61
2022/04/02 05:02:42;;;;;;;24.30;14.70;;;0.60;80.40;;;;;;5056745;28;45885;-62
2022/04/02 05:05:08;;;;;;;26.80;16.33;;;0.50;80.40;;;;;;5048392;28;46381;-61
2022/04/02 05:07:34;;;;;;;26.20;15.90;;;0.50;80.40;;;;;;5059723;28;46779;-62
2022/04/02 05:10:01;;;;;;;25.80;14.70;;;0.50;80.40;;;;;;5062674;28;46373;-63
2022/04/02 05:12:27;;;;;;;22.98;15.30;;;0.50;80.60;;;;;;5059331;28;47204;-60
2022/04/02 05:14:52;;;;;;;26.90;14.93;;;0.40;80.60;;;;;;5062394;28;46309;-61
2022/04/02 05:17:18;;;;;;;23.27;15.10;;;0.50;80.50;;;;;;5060698;28;46553;-62
2022/04/02 05:19:45;;;;;;;25.15;14.52;;;0.40;80.50;;;;;;5061507;28;46264;-62
2022/04/02 05:22:11;;;;;;;20.85;12.75;;;0.40;80.70;;;;;;5063463;28;46762;-62
2022/04/02 05:24:37;;;;;;;21.05;13.65;;;0.40;80.60;;;;;;5062979;28;46433;-63
2022/04/02 05:27:03;;;;;;;20.73;12.70;;;0.40;80.50;;;;;;5061629;28;46369;-63
2022/04/02 05:29:29;;;;;;;23.15;14.40;;;0.50;80.50;;;;;;5062494;28;46437;-62
2022/04/02 05:31:55;;;;;;;19.00;11.17;;;0.40;80.40;;;;;;5062607;28;46398;-64
2022/04/02 05:34:21;;;;;;;23.87;15.40;;;0.40;80.50;;;;;;5061218;28;45919;-62
2022/04/02 05:36:47;;;;;;;24.33;13.70;;;0.40;80.70;;;;;;5059672;28;46535;-63
2022/04/02 05:39:12;;;;;;;27.40;12.67;;;0.40;80.50;;;;;;5062110;28;46418;-63
2022/04/02 05:41:38;;;;;;;22.20;14.97;;;0.40;80.50;;;;;;5062540;28;46570;-63
2022/04/02 05:44:05;;;;;;;22.63;13.20;;;0.50;80.50;;;;;;5062175;28;46516;-62
2022/04/02 05:46:31;;;;;;;20.10;12.05;;;0.50;80.20;;;;;;5061285;28;46306;-66
2022/04/02 05:48:58;;;;;;;23.93;14.20;;;0.50;80.30;;;;;;5060473;28;46330;-65
2022/04/02 05:51:23;;;;;;;21.60;13.77;;;0.50;80.30;;;;;;5061935;28;46422;-63
2022/04/02 05:53:49;;;;;;;20.50;12.93;;;0.50;80.30;;;;;;5062606;28;46389;-65
2022/04/02 05:56:15;;;;;;;22.70;12.70;;;0.50;80.30;;;;;;5061258;28;46387;-63
2022/04/02 05:58:41;;;;;;;25.33;14.07;;;0.50;80.40;;;;;;5060141;28;46474;-62
2022/04/02 06:01:07;;;;;;;16.38;12.38;;;0.50;80.30;;;;;;5062654;28;46470;-64
2022/04/02 06:03:33;;;;;;;19.43;13.43;;;0.50;80.40;;;;;;5059702;28;46608;-65
2022/04/02 06:05:58;;;;;;;20.40;11.63;;;0.50;80.10;;;;;;5062382;28;46385;-65
2022/04/02 06:08:24;;;;;;;27.03;12.67;;;0.70;80.00;;;;;;5056203;28;46553;-65
2022/04/02 06:10:49;;;;;;;21.93;13.00;;;0.60;80.00;;;;;;5059671;28;46433;-64
2022/04/02 06:13:15;;;;;;;28.23;13.37;;;0.60;79.80;;;;;;5056906;28;46418;-63
2022/04/02 06:15:41;;;;;;;20.57;11.73;;;0.80;79.70;;;;;;5062272;28;46315;-63
2022/04/02 06:18:07;;;;;;;21.35;12.60;;;0.80;79.50;;;;;;5051582;28;46361;-65
2022/04/02 06:20:33;;;;;;;24.13;13.70;;;0.80;79.40;;;;;;5058849;28;46419;-63
2022/04/02 06:22:59;;;;;;;17.80;11.30;;;0.80;79.40;;;;;;5052760;28;46399;-62
2022/04/02 06:25:25;;;;;;;22.23;13.50;;;0.80;79.50;;;;;;5061639;28;46593;-64
2022/04/02 06:27:52;;;;;;;18.87;12.07;;;0.80;79.50;;;;;;5053847;28;46355;-65
2022/04/02 06:30:19;;;;;;;20.35;11.98;;;0.80;79.40;;;;;;5048455;28;46490;-63
2022/04/02 06:32:45;;;;;;;18.20;11.50;;;0.80;79.40;;;;;;5056392;28;46522;-64
2022/04/02 06:35:11;;;;;;;17.60;11.73;;;0.90;79.40;;;;;;5060002;28;46473;-64
2022/04/02 06:37:38;;;;;;;18.13;12.10;;;0.80;79.40;;;;;;5059205;28;46357;-63
2022/04/02 06:40:06;;;;;;;16.75;12.30;;;0.90;79.40;;;;;;5063274;28;46694;-65
2022/04/02 06:42:32;;;;;;;21.88;12.95;;;0.90;79.10;;;;;;5058434;28;46488;-65
2022/04/02 06:44:58;;;;;;;16.00;10.13;;;1.00;79.20;;;;;;5060720;28;46528;-67
2022/04/02 06:47:26;;;;;;;15.20;10.80;;;1.10;79.10;;;;;;5055324;28;46487;-64
2022/04/02 06:49:51;;;;;;;18.75;11.23;;;1.20;78.80;;;;;;5061679;28;46200;-65
2022/04/02 06:52:17;;;;;;;16.13;11.27;;;1.20;78.40;;;;;;5057940;28;46469;-65
2022/04/02 06:54:42;;;;;;;16.63;10.67;;;1.20;78.30;;;;;;5059203;28;46321;-63
2022/04/02 06:57:08;;;;;;;15.47;10.23;;;1.20;78.50;;;;;;5058034;28;46997;-64
2022/04/02 06:59:33;;;;;;;15.43;11.00;;;1.10;78.30;;;;;;5058004;28;46676;-65
2022/04/02 07:01:59;;;;;;;14.33;9.40;;;1.10;78.50;;;;;;5059209;28;46416;-64
2022/04/02 07:04:24;;;;;;;16.07;10.90;;;1.10;78.40;;;;;;5060842;28;46584;-65
2022/04/02 07:06:50;;;;;;;14.90;10.40;;;1.20;78.20;;;;;;5061444;28;46097;-63
2022/04/02 07:09:18;;;;;;;15.35;10.80;;;1.40;78.00;;;;;;5061448;28;46324;-63
2022/04/02 07:11:44;;;;;;;16.30;10.40;;;1.50;77.30;;;;;;5059710;28;46427;-64
2022/04/02 07:14:11;;;;;;;17.08;10.82;;;1.60;77.00;;;;;;5060615;28;46377;-67
2022/04/02 07:16:38;;;;;;;21.30;11.15;;;1.70;77.00;;;;;;5062206;28;46429;-65
2022/04/02 07:19:04;;;;;;;16.15;9.65;;;1.80;76.50;;;;;;5056339;28;45836;-62
2022/04/02 07:21:31;;;;;;;15.57;10.57;;;1.90;76.40;;;;;;5055110;28;46379;-64
2022/04/02 07:23:57;;;;;;;15.10;11.00;;;1.80;75.90;;;;;;5061529;28;46417;-66
2022/04/02 07:26:24;;;;;;;19.88;10.52;;;2.00;75.80;;;;;;5055868;28;47513;-66
2022/04/02 07:28:51;;;;;;;20.20;10.50;;;2.00;75.20;;;;;;5058713;28;46401;-68
2022/04/02 07:31:16;;;;;;;15.98;11.05;;;1.90;75.20;;;;;;5056043;28;46323;-65
2022/04/02 07:33:42;;;;;;;15.23;8.83;;;1.80;75.40;;;;;;5061300;28;46338;-65
2022/04/02 07:36:44;;;;;;;15.13;10.03;;;1.70;75.30;;;;;;5060691;28;46429;-68
2022/04/02 07:39:28;;;;;;;16.38;9.95;;;1.80;75.40;;;;;;5060319;28;46555;-64
2022/04/02 07:42:17;;;;;;;17.80;9.93;;;1.90;75.20;;;;;;5061446;28;46404;-67
2022/04/02 07:45:05;;;;;;;19.42;10.90;;;1.90;74.80;;;;;;5056998;28;46526;-65
2022/04/02 07:47:37;;;;;;;16.85;10.13;;;1.90;74.80;;;;;;5056265;28;46469;-65
2022/04/02 07:50:11;;;;;;;14.43;8.60;;;1.90;74.90;;;;;;5060026;28;46297;-66
2022/04/02 07:52:37;;;;;;;16.05;10.20;;;1.90;74.50;;;;;;5058819;28;46343;-66
2022/04/02 07:55:06;;;;;;;26.05;9.80;;;1.80;74.10;;;;;;5056407;28;46429;-65
2022/04/02 07:57:37;;;;;;;18.85;9.65;;;1.80;74.10;;;;;;5055270;28;46404;-66
2022/04/02 08:00:06;;;;;;;15.35;11.45;;;1.90;73.90;;;;;;5060877;28;46452;-64
2022/04/02 08:02:38;;;;;;;15.07;10.77;;;2.20;73.90;;;;;;5060048;28;46489;-66
2022/04/02 08:05:10;;;;;;;20.25;10.13;;;2.40;73.00;;;;;;5059087;28;46377;-64
2022/04/02 08:07:39;;;;;;;15.85;10.32;;;2.50;72.90;;;;;;5044645;28;47878;-65
2022/04/02 08:10:12;;;;;;;14.55;10.02;;;2.60;72.30;;;;;;5059566;28;46542;-65
2022/04/02 08:12:39;;;;;;;22.25;11.23;;;2.90;71.80;;;;;;5056746;28;46449;-69
2022/04/02 08:15:09;;;;;;;20.52;10.30;;;3.20;71.80;;;;;;5055541;28;46066;-64
2022/04/02 08:17:38;;;;;;;17.52;10.88;;;3.10;71.00;;;;;;5054728;28;47060;-63
2022/04/02 08:20:04;;;;;;;11.63;7.97;;;3.10;71.30;;;;;;5058496;28;46432;-64
2022/04/02 08:22:29;;;;;;;15.65;9.50;;;3.20;70.50;;;;;;5057384;28;46245;-65
2022/04/02 08:24:58;;;;;;;13.17;8.50;;;3.20;70.40;;;;;;5056623;28;46378;-63
2022/04/02 08:27:37;;;;;;;16.90;10.40;;;3.30;70.10;;;;;;5056767;28;46903;-65
2022/04/02 08:30:08;;;;;;;16.33;8.25;;;3.40;70.00;;;;;;5055435;28;46354;-68
2022/04/02 08:32:55;;;;;;;15.55;10.27;;;3.60;69.60;;;;;;5057055;28;46390;-64
2022/04/02 08:35:27;;;;;;;11.95;8.77;;;3.70;69.40;;;;;;5055923;28;46325;-65
2022/04/02 08:38:14;;;;;;;21.48;12.45;;;4.00;68.70;;;;;;5055256;28;46438;-65
2022/04/02 08:40:45;;;;;;;15.55;8.20;;;3.80;68.20;;;;;;5052005;28;46369;-64
2022/04/02 08:43:36;;;;;;;15.85;9.07;;;3.60;67.90;;;;;;5058818;28;46822;-63
2022/04/02 08:46:30;;;;;;;22.95;8.35;;;3.70;68.20;;;;;;5063022;28;46291;-65
2022/04/02 08:49:15;;;;;;;12.73;8.20;;;4.10;67.10;;;;;;5050996;28;47978;-64
2022/04/02 08:51:46;;;;;;;14.38;7.45;;;4.10;66.90;;;;;;5059293;28;46311;-68
2022/04/02 08:54:22;;;;;;;14.93;8.25;;;3.80;66.20;;;;;;5059781;28;45808;-65
2022/04/02 08:56:53;;;;;;;11.98;8.93;;;3.90;66.00;;;;;;5061310;28;46302;-64
2022/04/02 08:59:38;;;;;;;19.60;8.60;;;3.80;66.00;;;;;;5056567;28;47406;-66
2022/04/02 09:02:37;;;;;;;14.55;8.57;;;3.90;65.90;;;;;;5054090;28;46315;-64
2022/04/02 09:05:23;;;;;;;15.02;9.30;;;3.80;66.00;;;;;;5062387;28;46362;-64
2022/04/02 09:08:00;;;;;;;19.75;10.05;;;3.80;66.30;;;;;;5059435;28;46322;-64
2022/04/02 09:10:44;;;;;;;18.15;11.50;;;3.90;66.00;;;;;;5063197;28;46397;-66
2022/04/02 09:13:37;;;;;;;13.70;8.75;;;3.40;66.90;;;;;;5060365;28;46803;-67
2022/04/02 09:16:04;;;;;;;17.98;10.70;;;3.00;67.20;;;;;;5059522;28;45833;-64
2022/04/02 09:18:33;;;;;;;13.02;9.02;;;2.70;68.20;;;;;;5061110;28;46451;-66
2022/04/02 09:21:26;;;;;;;19.60;10.57;;;2.60;68.10;;;;;;5058776;28;46201;-65
2022/04/02 09:24:18;;;;;;;14.57;9.73;;;2.50;68.30;;;;;;5060122;28;46397;-64
2022/04/02 09:27:02;;;;;;;15.07;10.05;;;2.50;68.40;;;;;;5059507;28;46381;-65
2022/04/02 09:29:34;;;;;;;19.52;12.10;;;2.70;68.30;;;;;;5060028;28;46361;-65
2022/04/02 09:32:27;;;;;;;18.80;10.70;;;2.80;68.20;;;;;;5060139;28;47129;-64
2022/04/02 09:35:20;;;;;;;17.75;10.30;;;2.90;67.90;;;;;;5058941;28;46316;-64
2022/04/02 09:38:07;;;;;;;21.67;10.55;;;2.60;68.80;;;;;;5057074;28;46484;-66
2022/04/02 09:40:45;;;;;;;13.70;9.90;;;3.00;68.30;;;;;;5057773;28;45836;-66
2022/04/02 09:43:37;;;;;;;18.20;10.70;;;3.10;67.70;;;;;;5053473;28;47175;-65
2022/04/02 09:46:11;;;;;;;18.23;10.63;;;3.10;67.80;;;;;;5059742;28;46344;-67
2022/04/02 09:48:55;;;;;;;15.82;10.02;;;3.20;67.40;;;;;;5054419;28;46425;-65
2022/04/02 09:51:27;;;;;;;17.75;10.68;;;3.00;67.60;;;;;;5055843;28;46408;-64
2022/04/02 09:54:29;;;;;;;27.40;10.98;;;3.20;67.70;;;;;;5059701;28;46333;-69
2022/04/02 09:57:09;;;;;;;18.13;10.27;;;3.10;67.50;;;;;;5053384;28;46385;-69
2022/04/02 09:59:54;;;;;;;24.77;14.88;;;3.30;67.20;;;;;;5058308;28;46431;-67
2022/04/02 10:02:55;;;;;;;18.15;11.50;;;3.30;66.90;;;;;;5056205;28;46474;-65
2022/04/02 10:05:30;;;;;;;17.38;10.07;;;3.10;66.90;;;;;;5052903;28;47129;-65
2022/04/02 10:08:11;;;;;;;15.60;11.20;;;3.00;67.40;;;;;;5056971;28;46400;-64
2022/04/02 10:10:38;;;;;;;22.05;11.10;;;3.00;67.10;;;;;;5059962;28;45756;-63
2022/04/02 10:13:05;;;;;;;18.08;10.52;;;3.20;66.90;;;;;;5062658;28;46370;-61
2022/04/02 10:15:32;;;;;;;19.92;12.43;;;3.00;66.70;;;;;;5059693;28;46480;-65
2022/04/02 10:18:02;;;;;;;25.80;14.60;;;3.20;66.80;;;;;;5059929;28;46572;-65
2022/04/02 10:20:29;;;;;;;20.98;11.75;;;3.20;66.70;;;;;;5055647;28;46469;-68
2022/04/02 10:23:22;;;;;;;13.95;9.82;;;3.30;66.50;;;;;;5060651;28;46577;-63
2022/04/02 10:26:08;;;;;;;19.58;9.75;;;3.60;65.60;;;;;;5055202;28;46320;-65
2022/04/02 10:28:46;;;;;;;16.98;11.30;;;3.60;65.00;;;;;;5057579;28;46400;-65
2022/04/02 10:31:39;;;;;;;25.58;12.63;;;3.40;64.80;;;;;;5048713;28;46449;-66
2022/04/02 10:34:09;;;;;;;22.35;11.93;;;3.50;64.90;;;;;;5045248;28;46541;-65
2022/04/02 10:36:49;;;;;;;14.95;10.02;;;3.50;64.30;;;;;;5040931;28;47854;-65
2022/04/02 10:39:18;;;;;;;18.30;11.88;;;3.30;65.20;;;;;;5065400;28;46346;-65
2022/04/02 10:41:46;;;;;;;16.17;10.50;;;3.20;64.50;;;;;;5055761;28;46389;-63
2022/04/02 10:44:38;;;;;;;17.40;12.13;;;3.20;64.60;;;;;;5046038;28;46335;-64
2022/04/02 10:47:08;;;;;;;15.73;10.45;;;3.00;64.70;;;;;;5058000;28;46100;-67
2022/04/02 10:49:35;;;;;;;18.45;11.80;;;3.00;64.80;;;;;;5056755;28;46622;-68
2022/04/02 10:52:02;;;;;;;18.50;12.10;;;3.00;64.70;;;;;;5057942;28;46375;-65
2022/04/02 10:54:29;;;;;;;19.98;12.55;;;3.00;64.50;;;;;;5058667;28;46390;-66
2022/04/02 10:56:55;;;;;;;19.58;10.63;;;2.90;64.70;;;;;;5057921;28;47268;-67
2022/04/02 10:59:22;;;;;;;15.00;9.32;;;2.80;65.00;;;;;;5055596;28;46442;-65
2022/04/02 11:01:53;;;;;;;19.88;10.68;;;2.90;65.20;;;;;;5056687;28;46380;-64
2022/04/02 11:04:53;;;;;;;17.92;10.77;;;2.80;65.20;;;;;;5057595;28;46835;-64
2022/04/02 11:07:29;;;;;;;13.48;9.10;;;3.10;65.20;;;;;;5055515;28;48088;-64
2022/04/02 11:09:58;;;;;;;17.10;9.95;;;3.20;65.00;;;;;;5053706;28;46442;-64
2022/04/02 11:12:45;;;;;;;14.57;9.68;;;3.30;65.20;;;;;;5060768;28;46471;-65
2022/04/02 11:15:23;;;;;;;13.02;9.98;;;3.20;65.20;;;;;;5050198;28;46368;-63
2022/04/02 11:17:59;;;;;;;13.88;9.25;;;3.40;65.20;;;;;;5058870;28;46378;-65
2022/04/02 11:20:29;;;;;;;16.63;10.23;;;3.20;65.10;;;;;;5051549;28;46390;-65
2022/04/02 11:22:56;;;;;;;16.48;10.35;;;3.20;65.20;;;;;;5057582;28;46392;-66
2022/04/02 11:25:29;;;;;;;16.15;11.07;;;3.30;65.30;;;;;;5057564;28;46565;-65
2022/04/02 11:28:08;;;;;;;14.38;9.55;;;3.50;65.10;;;;;;5055661;28;47250;-70
2022/04/02 11:30:35;;;;;;;14.40;10.40;;;3.80;64.40;;;;;;5057845;28;45778;-65
2022/04/02 11:33:13;;;;;;;15.95;9.82;;;3.90;64.00;;;;;;5057924;28;46367;-67
2022/04/02 11:35:49;;;;;;;17.33;11.18;;;3.60;64.10;;;;;;5060080;28;46596;-64
2022/04/02 11:38:23;;;;;;;15.82;11.75;;;3.80;64.50;;;;;;5057330;28;46428;-66
2022/04/02 11:41:06;;;;;;;21.15;9.73;;;3.90;64.10;;;;;;5056556;28;46250;-62
2022/04/02 11:43:33;;;;;;;12.40;9.32;;;4.10;63.70;;;;;;5058767;28;46556;-62
2022/04/02 11:46:00;;;;;;;13.90;9.25;;;4.00;63.60;;;;;;5061475;28;46867;-65
2022/04/02 11:48:32;;;;;;;16.17;9.20;;;3.90;63.30;;;;;;5061371;28;47285;-64
2022/04/02 11:51:14;;;;;;;15.52;9.13;;;3.90;63.40;;;;;;5057548;28;46789;-67
2022/04/02 11:53:41;;;;;;;12.82;7.95;;;3.80;62.90;;;;;;5057907;28;46537;-67
2022/04/02 11:56:25;;;;;;;10.45;7.13;;;4.00;62.80;;;;;;5056293;28;46402;-65
2022/04/02 11:58:51;;;;;;;13.35;8.50;;;4.10;62.40;;;;;;5055617;28;47160;-66
2022/04/02 12:01:19;;;;;;;17.30;7.78;;;4.30;62.00;;;;;;5054954;28;46371;-65
2022/04/02 12:03:45;;;;;;;23.60;8.80;;;4.50;60.70;;;;;;5058829;28;46460;-68
2022/04/02 12:06:11;;;;;;;17.27;8.47;;;4.70;60.80;;;;;;5059510;28;46465;-65
2022/04/02 12:08:41;;;;;;;13.35;7.13;;;5.10;60.20;;;;;;5057516;28;46371;-66
2022/04/02 12:11:09;;;;;;;10.95;7.45;;;5.20;58.60;;;;;;5059907;28;46555;-65
2022/04/02 12:13:35;;;;;;;20.77;8.63;;;4.90;60.00;;;;;;5055778;28;46374;-66
2022/04/02 12:16:15;;;;;;;13.20;8.93;;;4.90;59.80;;;;;;5060147;28;45917;-68
2022/04/02 12:18:57;;;;;;;23.33;9.57;;;4.80;60.00;;;;;;5062227;28;46989;-64
2022/04/02 12:21:37;;;;;;;12.95;9.32;;;4.70;59.70;;;;;;5060082;28;46329;-64
2022/04/02 12:24:05;;;;;;;12.37;7.47;;;4.80;60.20;;;;;;5063855;28;45892;-66
2022/04/02 12:26:31;;;;;;;12.63;7.73;;;4.70;59.50;;;;;;5052073;28;46412;-65
2022/04/02 12:28:59;;;;;;;17.57;8.17;;;4.20;60.00;;;;;;5062223;28;47358;-65
2022/04/02 12:31:27;;;;;;;12.90;8.45;;;4.40;60.50;;;;;;5062243;28;46520;-66
2022/04/02 12:33:54;;;;;;;11.75;7.30;;;4.50;59.70;;;;;;5058421;28;46596;-66
2022/04/02 12:36:38;;;;;;;13.80;8.80;;;4.30;59.90;;;;;;5062985;28;46453;-65
2022/04/02 12:39:09;;;;;;;15.98;9.27;;;4.10;59.90;;;;;;5061361;28;47205;-66
2022/04/02 12:41:49;;;;;;;16.08;9.98;;;4.10;60.00;;;;;;5063035;28;46362;-67
2022/04/02 12:44:23;;;;;;;16.40;9.35;;;4.10;59.70;;;;;;5058120;28;46400;-70
2022/04/02 12:46:49;;;;;;;13.67;9.03;;;4.30;59.60;;;;;;5062888;28;46274;-65
2022/04/02 12:49:35;;;;;;;14.17;9.50;;;4.40;59.30;;;;;;5059410;28;46980;-68
2022/04/02 12:52:14;;;;;;;13.43;9.00;;;4.40;60.00;;;;;;5061944;28;46425;-63
2022/04/02 12:54:47;;;;;;;14.95;9.23;;;4.40;60.00;;;;;;5058564;28;46431;-65
2022/04/02 12:57:15;;;;;;;13.77;10.00;;;4.30;60.00;;;;;;5059372;28;46223;-64
2022/04/02 12:59:43;;;;;;;13.45;9.80;;;4.30;61.30;;;;;;5060862;28;46315;-66